createdAt,value
2019-04-27T00:00:49.820Z,16.47
2019-04-27T00:03:23.430Z,16.39
2019-04-27T00:06:08.516Z,16.30
2019-04-27T00:08:53.508Z,16.26
2019-04-27T00:11:30.052Z,16.18
2019-04-27T00:14:00.884Z,16.17
2019-04-27T00:16:36.543Z,16.16
2019-04-27T00:19:27.401Z,16.15
2019-04-27T00:22:00.721Z,16.16
2019-04-27T00:24:33.529Z,16.23
2019-04-27T00:27:05.775Z,16.27
2019-04-27T00:29:37.167Z,16.27
2019-04-27T00:32:07.905Z,16.25
2019-04-27T00:34:39.451Z,16.24
2019-04-27T00:37:28.522Z,16.18
2019-04-27T00:40:10.207Z,16.16
2019-04-27T00:42:41.467Z,16.11
2019-04-27T00:45:14.365Z,16.14
2019-04-27T00:47:56.405Z,16.08
2019-04-27T00:50:18.335Z,16.08
2019-04-27T00:52:49.424Z,16.08
2019-04-27T00:55:20.609Z,16.00
2019-04-27T00:58:12.953Z,15.95
2019-04-27T01:01:02.118Z,15.88
2019-04-27T01:03:34.753Z,15.78
2019-04-27T01:06:06.333Z,15.70
2019-04-27T01:08:39.502Z,15.68
2019-04-27T01:11:10.838Z,15.64
2019-04-27T01:13:43.397Z,15.61
2019-04-27T01:16:17.455Z,15.57
2019-04-27T01:18:48.822Z,15.50
2019-04-27T01:21:19.521Z,15.41
2019-04-27T01:23:50.594Z,15.34
2019-04-27T01:26:28.656Z,15.28
2019-04-27T01:29:04.092Z,15.25
2019-04-27T01:31:35.865Z,15.15
2019-04-27T01:34:09.275Z,15.19
2019-04-27T01:36:40.913Z,15.05
2019-04-27T01:39:16.220Z,15.00
2019-04-27T01:41:46.950Z,14.98
2019-04-27T01:44:19.353Z,14.92
2019-04-27T01:46:51.769Z,14.90
2019-04-27T01:49:22.880Z,14.93
2019-04-27T01:51:54.771Z,14.92
2019-04-27T01:54:27.029Z,14.85
2019-04-27T01:57:00.665Z,14.87
2019-04-27T01:59:30.850Z,14.86
2019-04-27T02:02:19.839Z,14.92
2019-04-27T02:05:08.967Z,14.72
2019-04-27T02:07:41.493Z,14.75
2019-04-27T02:10:14.434Z,14.66
2019-04-27T02:12:45.300Z,14.59
2019-04-27T02:15:16.400Z,14.53
2019-04-27T02:17:49.023Z,14.51
2019-04-27T02:20:21.253Z,14.51
2019-04-27T02:22:52.217Z,14.51
2019-04-27T02:25:23.377Z,14.43
2019-04-27T02:27:55.673Z,14.50
2019-04-27T02:30:44.671Z,14.42
2019-04-27T02:33:32.327Z,14.39
2019-04-27T02:36:03.037Z,14.35
2019-04-27T02:38:33.810Z,14.26
2019-04-27T02:41:05.310Z,14.25
2019-04-27T02:43:39.968Z,14.20
2019-04-27T02:46:10.136Z,14.21
2019-04-27T02:48:55.451Z,14.19
2019-04-27T02:51:20.291Z,14.16
2019-04-27T02:54:00.162Z,14.14
2019-04-27T02:56:31.164Z,14.12
2019-04-27T02:59:01.878Z,14.08
2019-04-27T03:01:53.372Z,14.08
2019-04-27T03:04:24.559Z,14.07
2019-04-27T03:06:56.456Z,14.00
2019-04-27T03:09:27.454Z,14.01
2019-04-27T03:12:02.286Z,13.98
2019-04-27T03:14:51.253Z,13.95
2019-04-27T03:17:26.643Z,13.97
2019-04-27T03:20:05.006Z,13.96
2019-04-27T03:22:40.782Z,13.92
2019-04-27T03:25:15.363Z,13.85
2019-04-27T03:27:53.979Z,13.88
2019-04-27T03:30:25.201Z,13.78
2019-04-27T03:33:02.730Z,13.72
2019-04-27T03:35:36.103Z,13.63
2019-04-27T03:38:04.199Z,13.57
2019-04-27T03:40:35.188Z,13.57
2019-04-27T03:43:09.366Z,13.59
2019-04-27T03:45:41.964Z,13.63
2019-04-27T03:48:12.825Z,13.64
2019-04-27T03:50:51.592Z,13.64
2019-04-27T03:53:24.212Z,13.70
2019-04-27T03:55:59.808Z,13.71
2019-04-27T03:58:32.512Z,13.73
2019-04-27T04:01:03.664Z,13.71
2019-04-27T04:03:34.379Z,13.73
2019-04-27T04:06:05.613Z,13.74
2019-04-27T04:08:36.171Z,13.75
2019-04-27T04:11:10.289Z,13.78
2019-04-27T04:13:43.112Z,13.79
2019-04-27T04:16:15.576Z,13.83
2019-04-27T04:19:01.088Z,13.79
2019-04-27T04:21:32.043Z,13.83
2019-04-27T04:24:02.772Z,13.83
2019-04-27T04:26:33.679Z,13.86
2019-04-27T04:29:05.081Z,13.88
2019-04-27T04:31:36.094Z,13.91
2019-04-27T04:34:11.556Z,13.97
2019-04-27T04:36:42.532Z,14.00
2019-04-27T04:39:12.521Z,14.06
2019-04-27T04:41:45.307Z,14.09
2019-04-27T04:44:20.565Z,14.11
2019-04-27T04:46:52.855Z,14.01
2019-04-27T04:49:23.634Z,14.07
2019-04-27T04:51:54.520Z,14.05
2019-04-27T04:54:26.188Z,14.06
2019-04-27T04:56:56.848Z,14.10
2019-04-27T04:59:29.083Z,14.07
2019-04-27T05:02:02.299Z,14.09
2019-04-27T05:04:33.446Z,14.14
2019-04-27T05:07:04.534Z,14.17
2019-04-27T05:09:35.369Z,14.15
2019-04-27T05:12:05.951Z,14.16
2019-04-27T05:14:38.799Z,14.16
2019-04-27T05:17:09.787Z,14.25
2019-04-27T05:19:40.688Z,14.12
2019-04-27T05:22:11.531Z,14.25
2019-04-27T05:24:42.392Z,14.19
2019-04-27T05:27:13.411Z,14.19
2019-04-27T05:29:44.179Z,14.19
2019-04-27T05:32:15.047Z,14.11
2019-04-27T05:34:46.336Z,14.07
2019-04-27T05:37:17.152Z,13.96
2019-04-27T05:39:48.721Z,13.76
2019-04-27T05:42:20.050Z,13.83
2019-04-27T05:44:55.713Z,13.85
2019-04-27T05:47:30.996Z,13.86
2019-04-27T05:50:03.294Z,13.83
2019-04-27T05:52:34.117Z,13.76
2019-04-27T05:55:05.813Z,13.68
2019-04-27T05:57:39.020Z,13.64
2019-04-27T06:00:11.770Z,13.53
2019-04-27T06:02:43.983Z,13.58
2019-04-27T06:05:14.800Z,13.59
2019-04-27T06:07:45.598Z,13.54
2019-04-27T06:10:16.992Z,13.42
2019-04-27T06:12:48.611Z,13.36
2019-04-27T06:15:19.874Z,13.44
2019-04-27T06:17:52.005Z,13.38
2019-04-27T06:20:22.746Z,13.44
2019-04-27T06:22:53.886Z,13.44
2019-04-27T06:25:24.606Z,13.46
2019-04-27T06:27:56.106Z,13.49
2019-04-27T06:30:26.760Z,13.45
2019-04-27T06:33:01.701Z,13.38
2019-04-27T06:35:32.563Z,13.31
2019-04-27T06:38:03.448Z,13.28
2019-04-27T06:40:35.492Z,13.32
2019-04-27T06:43:08.508Z,13.37
2019-04-27T06:45:40.107Z,13.38
2019-04-27T06:48:11.003Z,13.23
2019-04-27T06:50:43.030Z,13.16
2019-04-27T06:53:14.022Z,13.01
2019-04-27T06:55:44.829Z,13.15
2019-04-27T06:58:15.603Z,13.15
2019-04-27T07:00:46.353Z,13.23
2019-04-27T07:03:18.773Z,13.13
2019-04-27T07:05:49.915Z,13.23
2019-04-27T07:08:20.956Z,13.34
2019-04-27T07:10:53.193Z,13.45
2019-04-27T07:13:24.192Z,13.41
2019-04-27T07:15:54.945Z,13.42
2019-04-27T07:18:26.035Z,13.24
2019-04-27T07:20:58.655Z,13.15
2019-04-27T07:23:30.094Z,13.25
2019-04-27T07:26:02.957Z,13.23
2019-04-27T07:28:33.569Z,13.29
2019-04-27T07:31:04.597Z,13.33
2019-04-27T07:33:35.782Z,13.26
2019-04-27T07:36:06.678Z,13.29
2019-04-27T07:38:40.184Z,13.27
2019-04-27T07:41:11.033Z,13.31
2019-04-27T07:44:00.911Z,13.34
2019-04-27T07:46:31.885Z,13.37
2019-04-27T07:49:02.552Z,13.39
2019-04-27T07:51:34.408Z,13.38
2019-04-27T07:54:05.897Z,13.38
2019-04-27T07:56:36.894Z,13.34
2019-04-27T07:59:09.102Z,13.54
2019-04-27T08:01:40.058Z,13.36
2019-04-27T08:04:10.721Z,13.28
2019-04-27T08:06:41.510Z,13.32
2019-04-27T08:09:13.241Z,13.24
2019-04-27T08:11:45.578Z,13.21
2019-04-27T08:14:16.514Z,13.38
2019-04-27T08:16:48.652Z,13.29
2019-04-27T08:19:19.771Z,13.38
2019-04-27T08:21:50.420Z,13.41
2019-04-27T08:24:21.282Z,13.28
2019-04-27T08:26:53.582Z,13.35
2019-04-27T08:29:26.633Z,13.33
2019-04-27T08:32:01.669Z,13.32
2019-04-27T08:34:35.523Z,13.22
2019-04-27T08:37:08.738Z,13.22
2019-04-27T08:39:39.731Z,13.28
2019-04-27T08:42:12.151Z,13.36
2019-04-27T08:44:43.803Z,13.47
2019-04-27T08:47:15.283Z,13.59
2019-04-27T08:49:46.323Z,13.79
2019-04-27T08:52:17.131Z,13.74
2019-04-27T08:54:49.128Z,13.55
2019-04-27T08:57:21.374Z,13.40
2019-04-27T08:59:54.613Z,13.39
2019-04-27T09:02:38.964Z,13.35
2019-04-27T09:04:59.602Z,13.29
2019-04-27T09:07:32.495Z,13.15
2019-04-27T09:10:23.619Z,13.14
2019-04-27T09:12:58.856Z,13.16
2019-04-27T09:15:49.451Z,13.18
2019-04-27T09:18:22.136Z,13.24
2019-04-27T09:20:58.933Z,13.32
2019-04-27T09:23:29.922Z,13.24
2019-04-27T09:26:01.018Z,13.20
2019-04-27T09:28:32.246Z,13.29
2019-04-27T09:31:03.353Z,13.19
2019-04-27T09:33:34.470Z,13.37
2019-04-27T09:36:06.184Z,13.46
2019-04-27T09:38:38.779Z,13.43
2019-04-27T09:41:09.933Z,13.26
2019-04-27T09:43:40.987Z,13.53
2019-04-27T09:46:15.747Z,13.64
2019-04-27T09:48:47.410Z,13.56
2019-04-27T09:51:18.730Z,13.56
2019-04-27T09:53:49.793Z,13.86
2019-04-27T09:56:22.404Z,13.65
2019-04-27T09:58:57.033Z,13.49
2019-04-27T10:01:28.828Z,13.48
2019-04-27T10:03:59.332Z,13.56
2019-04-27T10:06:30.325Z,13.52
2019-04-27T10:09:03.042Z,13.48
2019-04-27T10:11:35.632Z,13.62
2019-04-27T10:14:06.689Z,13.47
2019-04-27T10:16:37.980Z,13.46
2019-04-27T10:19:08.873Z,13.47
2019-04-27T10:21:41.004Z,13.39
2019-04-27T10:24:12.160Z,13.68
2019-04-27T10:26:43.888Z,14.11
2019-04-27T10:29:16.205Z,14.18
2019-04-27T10:31:48.235Z,14.22
2019-04-27T10:34:19.248Z,14.13
2019-04-27T10:36:50.390Z,13.80
2019-04-27T10:39:22.534Z,13.61
2019-04-27T10:41:56.356Z,13.64
2019-04-27T10:44:28.299Z,13.75
2019-04-27T10:46:59.487Z,14.05
2019-04-27T10:49:32.689Z,14.20
2019-04-27T10:52:05.914Z,14.02
2019-04-27T10:54:37.164Z,14.20
2019-04-27T10:57:08.040Z,14.22
2019-04-27T10:59:38.919Z,14.32
2019-04-27T11:02:11.562Z,14.35
2019-04-27T11:04:49.846Z,14.53
2019-04-27T11:07:22.356Z,14.61
2019-04-27T11:09:53.765Z,14.50
2019-04-27T11:12:25.879Z,14.55
2019-04-27T11:14:57.748Z,14.67
2019-04-27T11:17:28.289Z,14.75
2019-04-27T11:19:59.150Z,14.88
2019-04-27T11:22:30.054Z,14.98
2019-04-27T11:25:00.939Z,14.79
2019-04-27T11:27:33.677Z,14.96
2019-04-27T11:30:10.545Z,15.00
2019-04-27T11:32:41.339Z,14.88
2019-04-27T11:35:18.551Z,14.13
2019-04-27T11:37:51.183Z,14.70
2019-04-27T11:40:24.420Z,14.72
2019-04-27T11:42:57.074Z,14.79
2019-04-27T11:45:29.955Z,14.84
2019-04-27T11:48:01.999Z,15.06
2019-04-27T11:50:32.815Z,14.87
2019-04-27T11:53:06.022Z,14.88
2019-04-27T11:55:37.210Z,14.96
2019-04-27T11:58:08.414Z,14.88
2019-04-27T12:00:39.069Z,14.78
2019-04-27T12:03:09.780Z,14.86
2019-04-27T12:05:41.905Z,14.78
2019-04-27T12:08:13.245Z,14.70
2019-04-27T12:10:46.439Z,14.65
2019-04-27T12:13:18.651Z,14.89
2019-04-27T12:15:51.688Z,14.66
2019-04-27T12:18:22.547Z,14.50
2019-04-27T12:20:53.481Z,14.60
2019-04-27T12:23:35.377Z,14.63
2019-04-27T12:25:56.674Z,15.26
2019-04-27T12:28:29.085Z,15.26
2019-04-27T12:31:02.095Z,15.66
2019-04-27T12:33:35.805Z,15.71
2019-04-27T12:36:09.710Z,15.60
2019-04-27T12:38:40.652Z,15.79
2019-04-27T12:41:13.010Z,16.11
2019-04-27T12:43:45.787Z,16.21
2019-04-27T12:46:16.624Z,15.73
2019-04-27T12:48:48.552Z,15.64
2019-04-27T12:51:21.050Z,15.94
2019-04-27T12:53:56.007Z,15.89
2019-04-27T12:56:32.440Z,16.23
2019-04-27T12:59:05.559Z,16.84
2019-04-27T13:01:36.822Z,17.28
2019-04-27T13:04:07.972Z,17.41
2019-04-27T13:06:38.870Z,17.50
2019-04-27T13:09:09.829Z,17.25
2019-04-27T13:11:42.373Z,17.29
2019-04-27T13:14:16.350Z,17.40
2019-04-27T13:16:48.452Z,17.49
2019-04-27T13:19:20.108Z,17.82
2019-04-27T13:21:53.782Z,17.88
2019-04-27T13:24:26.074Z,18.23
2019-04-27T13:26:57.585Z,18.07
2019-04-27T13:29:28.761Z,18.17
2019-04-27T13:32:00.131Z,18.23
2019-04-27T13:34:31.012Z,18.35
2019-04-27T13:37:04.424Z,17.45
2019-04-27T13:39:35.945Z,18.08
2019-04-27T13:42:07.892Z,17.26
2019-04-27T13:44:39.516Z,17.82
2019-04-27T13:47:29.500Z,17.52
2019-04-27T13:50:01.926Z,17.80
2019-04-27T13:52:36.234Z,18.58
2019-04-27T13:55:07.618Z,18.42
2019-04-27T13:57:49.755Z,17.82
2019-04-27T14:00:14.850Z,17.71
2019-04-27T14:02:46.465Z,18.06
2019-04-27T14:05:18.269Z,17.74
2019-04-27T14:07:49.856Z,17.24
2019-04-27T14:10:21.247Z,16.61
2019-04-27T14:12:52.341Z,16.75
2019-04-27T14:15:23.397Z,16.92
2019-04-27T14:17:55.914Z,16.69
2019-04-27T14:20:28.762Z,16.62
2019-04-27T14:23:20.656Z,16.84
2019-04-27T14:25:53.774Z,16.76
2019-04-27T14:28:25.888Z,16.98
2019-04-27T14:30:58.915Z,17.28
2019-04-27T14:33:30.356Z,17.74
2019-04-27T14:36:02.047Z,17.60
2019-04-27T14:38:36.019Z,17.31
2019-04-27T14:41:08.928Z,17.18
2019-04-27T14:43:40.195Z,17.02
2019-04-27T14:46:11.107Z,17.67
2019-04-27T14:48:41.947Z,17.36
2019-04-27T14:51:14.013Z,17.76
2019-04-27T14:53:45.213Z,17.56
2019-04-27T14:56:18.191Z,17.19
2019-04-27T14:58:49.548Z,16.66
2019-04-27T15:01:20.737Z,17.05
2019-04-27T15:03:51.861Z,17.42
2019-04-27T15:06:23.123Z,17.79
2019-04-27T15:08:55.798Z,18.06
2019-04-27T15:11:27.336Z,18.04
2019-04-27T15:14:00.056Z,17.74
2019-04-27T15:16:30.945Z,17.86
2019-04-27T15:19:17.852Z,17.69
2019-04-27T15:21:57.799Z,17.91
2019-04-27T15:24:21.241Z,17.58
2019-04-27T15:26:54.403Z,17.86
2019-04-27T15:29:26.841Z,18.34
2019-04-27T15:32:01.328Z,18.11
2019-04-27T15:34:44.694Z,18.47
2019-04-27T15:37:18.534Z,18.27
2019-04-27T15:40:08.351Z,18.37
2019-04-27T15:42:49.053Z,17.92
2019-04-27T15:45:24.044Z,17.78
2019-04-27T15:47:55.066Z,18.31
2019-04-27T15:50:33.281Z,18.31
2019-04-27T15:53:15.869Z,17.80
2019-04-27T15:55:59.989Z,16.91
2019-04-27T15:58:51.294Z,16.92
2019-04-27T16:01:24.752Z,17.52
2019-04-27T16:03:58.333Z,17.55
2019-04-27T16:06:29.267Z,17.31
2019-04-27T16:09:00.372Z,17.15
2019-04-27T16:11:31.851Z,16.90
2019-04-27T16:14:06.704Z,17.13
2019-04-27T16:16:38.189Z,17.12
2019-04-27T16:19:11.572Z,16.67
2019-04-27T16:21:47.821Z,16.43
2019-04-27T16:24:17.020Z,16.79
2019-04-27T16:26:54.639Z,17.20
2019-04-27T16:29:23.181Z,17.22
2019-04-27T16:31:55.652Z,17.02
2019-04-27T16:34:28.570Z,17.24
2019-04-27T16:37:01.070Z,17.57
2019-04-27T16:39:33.932Z,17.10
2019-04-27T16:42:09.970Z,17.28
2019-04-27T16:44:40.252Z,17.51
2019-04-27T16:47:12.583Z,16.95
2019-04-27T16:49:48.325Z,16.54
2019-04-27T16:52:19.462Z,16.50
2019-04-27T16:54:57.199Z,16.65
2019-04-27T16:57:28.117Z,16.39
2019-04-27T17:00:01.183Z,16.35
2019-04-27T17:02:33.689Z,16.61
2019-04-27T17:05:05.687Z,16.91
2019-04-27T17:07:37.613Z,16.97
2019-04-27T17:10:10.840Z,16.95
2019-04-27T17:12:45.810Z,17.04
2019-04-27T17:15:33.272Z,17.11
2019-04-27T17:18:24.289Z,17.05
2019-04-27T17:20:59.258Z,16.97
2019-04-27T17:23:31.528Z,17.00
2019-04-27T17:26:09.224Z,17.01
2019-04-27T17:28:39.240Z,16.92
2019-04-27T17:31:13.001Z,16.81
2019-04-27T17:33:48.844Z,16.72
2019-04-27T17:36:19.972Z,16.58
2019-04-27T17:38:51.431Z,16.47
2019-04-27T17:41:22.744Z,16.19
2019-04-27T17:43:53.679Z,15.69
2019-04-27T17:46:24.563Z,15.41
2019-04-27T17:48:55.628Z,15.10
2019-04-27T17:51:30.518Z,14.81
2019-04-27T17:54:02.963Z,14.57
2019-04-27T17:56:36.216Z,14.39
2019-04-27T17:59:10.395Z,14.03
2019-04-27T18:01:39.326Z,13.76
2019-04-27T18:04:10.675Z,13.54
2019-04-27T18:06:42.669Z,13.43
2019-04-27T18:09:18.561Z,13.32
2019-04-27T18:11:50.379Z,13.12
2019-04-27T18:14:21.671Z,13.02
2019-04-27T18:16:52.751Z,12.97
2019-04-27T18:19:25.685Z,13.02
2019-04-27T18:22:02.060Z,12.92
2019-04-27T18:24:35.144Z,12.85
2019-04-27T18:27:19.651Z,12.57
2019-04-27T18:29:50.506Z,12.33
2019-04-27T18:32:23.568Z,12.19
2019-04-27T18:34:54.879Z,12.11
2019-04-27T18:37:28.212Z,12.06
2019-04-27T18:39:59.658Z,12.21
2019-04-27T18:42:31.333Z,12.15
2019-04-27T18:45:07.074Z,11.95
2019-04-27T18:47:40.219Z,12.03
2019-04-27T18:50:18.175Z,12.07
2019-04-27T18:53:08.252Z,12.18
2019-04-27T18:55:41.569Z,12.24
2019-04-27T18:58:12.707Z,12.26
2019-04-27T19:00:43.563Z,12.21
2019-04-27T19:03:15.967Z,12.19
2019-04-27T19:05:48.093Z,12.04
2019-04-27T19:08:20.191Z,11.80
2019-04-27T19:10:51.301Z,11.76
2019-04-27T19:13:22.425Z,11.77
2019-04-27T19:15:54.111Z,11.48
2019-04-27T19:18:26.236Z,11.15
2019-04-27T19:20:58.468Z,11.14
2019-04-27T19:23:30.710Z,11.14
2019-04-27T19:26:20.510Z,11.16
2019-04-27T19:29:08.580Z,11.15
2019-04-27T19:31:50.067Z,11.00
2019-04-27T19:34:21.086Z,10.83
2019-04-27T19:36:51.799Z,10.94
2019-04-27T19:39:22.906Z,10.68
2019-04-27T19:42:00.342Z,10.38
2019-04-27T19:44:29.166Z,10.35
2019-04-27T19:47:00.417Z,10.39
2019-04-27T19:49:31.958Z,10.44
2019-04-27T19:52:02.729Z,10.55
2019-04-27T19:54:33.699Z,10.46
2019-04-27T19:57:04.742Z,10.47
2019-04-27T19:59:38.047Z,10.47
2019-04-27T20:02:10.978Z,10.38
2019-04-27T20:04:42.841Z,10.25
2019-04-27T20:07:14.982Z,10.15
2019-04-27T20:09:47.895Z,10.27
2019-04-27T20:12:21.305Z,10.31
2019-04-27T20:14:58.490Z,10.17
2019-04-27T20:17:31.502Z,9.98
2019-04-27T20:20:02.808Z,9.73
2019-04-27T20:22:36.799Z,9.63
2019-04-27T20:25:07.710Z,9.49
2019-04-27T20:27:46.766Z,9.42
2019-04-27T20:30:13.148Z,9.32
2019-04-27T20:32:44.991Z,9.33
2019-04-27T20:35:15.719Z,9.19
2019-04-27T20:37:46.450Z,9.28
2019-04-27T20:40:17.144Z,9.10
2019-04-27T20:42:48.071Z,9.03
2019-04-27T20:45:18.783Z,9.13
2019-04-27T20:47:52.408Z,9.10
2019-04-27T20:50:22.708Z,9.05
2019-04-27T20:52:55.510Z,8.99
2019-04-27T20:55:27.329Z,8.97
2019-04-27T20:58:02.091Z,8.88
2019-04-27T21:00:31.989Z,8.95
2019-04-27T21:03:05.360Z,8.85
2019-04-27T21:05:46.837Z,8.93
2019-04-27T21:08:20.814Z,8.90
2019-04-27T21:10:52.196Z,8.92
2019-04-27T21:13:22.945Z,8.91
2019-04-27T21:15:54.487Z,8.91
2019-04-27T21:18:26.306Z,9.01
2019-04-27T21:20:57.166Z,8.96
2019-04-27T21:23:28.936Z,9.00
2019-04-27T21:26:02.142Z,8.93
2019-04-27T21:28:34.301Z,8.95
2019-04-27T21:31:07.194Z,8.93
2019-04-27T21:33:38.113Z,8.95
2019-04-27T21:36:08.787Z,8.85
2019-04-27T21:38:42.548Z,8.92
2019-04-27T21:41:12.035Z,8.89
2019-04-27T21:43:43.815Z,8.83
2019-04-27T21:46:15.441Z,8.85
2019-04-27T21:48:46.490Z,8.72
2019-04-27T21:51:18.063Z,8.64
2019-04-27T21:53:57.229Z,8.83
2019-04-27T21:56:28.305Z,8.89
2019-04-27T21:59:00.959Z,8.84
2019-04-27T22:01:33.599Z,8.74
2019-04-27T22:04:08.700Z,8.61
2019-04-27T22:11:23.711Z,8.44
2019-04-27T22:13:55.032Z,8.53
2019-04-27T22:16:25.884Z,8.53
2019-04-27T22:18:56.736Z,8.43
2019-04-27T22:21:27.862Z,8.35
2019-04-27T22:24:03.590Z,8.24
2019-04-27T22:26:35.263Z,8.15
2019-04-27T22:29:06.671Z,8.05
2019-04-27T22:31:37.616Z,8.01
2019-04-27T22:34:08.264Z,8.00
2019-04-27T22:36:38.915Z,7.94
2019-04-27T22:39:20.839Z,7.91
2019-04-27T22:41:53.210Z,7.85
2019-04-27T22:44:25.631Z,7.86
2019-04-27T22:46:56.732Z,7.85
2019-04-27T22:49:27.891Z,7.84
2019-04-27T22:52:01.532Z,7.81
2019-04-27T22:54:33.121Z,7.85
2019-04-27T22:57:05.955Z,7.84
2019-04-27T22:59:44.625Z,7.83
2019-04-27T23:02:29.400Z,7.86
2019-04-27T23:05:01.962Z,7.89
2019-04-27T23:07:34.099Z,7.89
2019-04-27T23:10:07.471Z,7.92
2019-04-27T23:12:38.932Z,7.97
2019-04-27T23:15:11.771Z,8.11
2019-04-27T23:17:55.167Z,8.24
